Time;durP1;ratioP1;P1;durP2;ratioP2;P2;SDS_P1;SDS_P2;PMS_P1;PMS_P2;Temp;Humidity;BMP_temperature;BMP_pressure;BME280_temperature;BME280_humidity;BME280_pressure;Samples;Min_cycle;Max_cycle;Signal;HPM_P1;HPM_P2
2023/03/18 00:01:37;;;;;;;18.63;12.93;;;10.70;99.90;;;;;;5095282;28;20484;-60
2023/03/18 00:04:03;;;;;;;17.20;11.82;;;10.70;99.90;;;;;;5095640;28;20051;-60
2023/03/18 00:06:29;;;;;;;20.30;13.05;;;10.50;99.90;;;;;;5095151;28;20036;-59
2023/03/18 00:08:57;;;;;;;20.15;13.70;;;10.50;99.90;;;;;;5093785;28;20036;-60
2023/03/18 00:11:22;;;;;;;21.27;13.27;;;10.50;99.90;;;;;;5095274;28;20055;-60
2023/03/18 00:13:48;;;;;;;19.15;13.93;;;10.50;99.90;;;;;;5094959;28;20032;-60
2023/03/18 00:16:15;;;;;;;20.05;13.38;;;10.50;99.90;;;;;;5094627;28;20083;-59
2023/03/18 00:18:41;;;;;;;19.33;13.45;;;10.50;99.90;;;;;;5094782;28;20056;-60
2023/03/18 00:21:08;;;;;;;21.85;13.30;;;10.80;99.90;;;;;;5094795;28;20046;-60
2023/03/18 00:23:35;;;;;;;17.40;13.20;;;10.60;99.90;;;;;;5093504;28;20102;-60
2023/03/18 00:26:01;;;;;;;18.25;13.18;;;10.80;99.90;;;;;;5094867;28;20032;-60
2023/03/18 00:28:28;;;;;;;21.08;13.48;;;10.50;99.90;;;;;;5093479;28;20599;-60
2023/03/18 00:30:55;;;;;;;20.17;12.90;;;10.60;99.90;;;;;;5094527;28;20048;-60
2023/03/18 00:33:21;;;;;;;23.48;13.30;;;10.60;99.90;;;;;;5094709;28;20115;-60
2023/03/18 00:35:47;;;;;;;19.60;13.50;;;10.70;99.90;;;;;;5094543;28;20559;-60
2023/03/18 00:38:20;;;;;;;22.20;13.48;;;10.50;99.90;;;;;;5094634;28;20086;-60
2023/03/18 00:40:59;;;;;;;19.27;12.77;;;10.50;99.90;;;;;;5094563;28;20040;-60
2023/03/18 00:43:28;;;;;;;21.27;13.20;;;10.80;99.90;;;;;;5093109;28;20051;-59
2023/03/18 00:45:56;;;;;;;19.90;12.40;;;10.60;99.90;;;;;;5094403;28;20040;-60
2023/03/18 00:48:23;;;;;;;18.60;13.15;;;10.50;99.90;;;;;;5094594;28;20044;-60
2023/03/18 00:50:49;;;;;;;20.20;13.23;;;10.50;99.90;;;;;;5094270;28;20115;-60
2023/03/18 00:53:15;;;;;;;16.63;12.70;;;10.60;99.90;;;;;;5094460;28;20047;-60
2023/03/18 00:55:41;;;;;;;21.17;13.35;;;10.50;99.90;;;;;;5094291;28;20036;-60
2023/03/18 00:58:08;;;;;;;21.00;14.15;;;10.60;99.90;;;;;;5093031;28;20385;-60
2023/03/18 01:00:36;;;;;;;18.90;13.70;;;10.50;99.90;;;;;;5092863;28;20054;-59
2023/03/18 01:03:03;;;;;;;18.20;13.57;;;10.60;99.90;;;;;;5093789;28;20055;-60
2023/03/18 01:05:30;;;;;;;21.30;13.73;;;10.40;99.90;;;;;;5093866;28;20046;-60
2023/03/18 01:07:57;;;;;;;19.63;13.50;;;10.70;99.90;;;;;;5094115;28;20050;-59
2023/03/18 01:10:23;;;;;;;18.92;13.60;;;10.40;99.90;;;;;;5093951;28;20024;-60
2023/03/18 01:12:49;;;;;;;19.35;14.30;;;10.40;99.90;;;;;;5092552;28;20055;-59
2023/03/18 01:15:17;;;;;;;21.13;14.05;;;10.60;99.90;;;;;;5093886;28;20047;-60
2023/03/18 01:17:44;;;;;;;20.73;15.10;;;10.60;99.90;;;;;;5093892;28;20048;-59
2023/03/18 01:20:12;;;;;;;22.98;15.43;;;10.70;99.90;;;;;;5093688;28;20103;-60
2023/03/18 01:22:40;;;;;;;22.27;15.48;;;10.40;99.90;;;;;;5093839;28;20040;-59
2023/03/18 01:25:07;;;;;;;23.17;16.40;;;10.60;99.90;;;;;;5093639;28;20396;-59
2023/03/18 01:27:33;;;;;;;20.38;16.52;;;10.30;99.90;;;;;;5093532;28;20042;-59
2023/03/18 01:29:59;;;;;;;22.65;16.00;;;10.60;99.90;;;;;;5093758;28;20488;-60
2023/03/18 01:32:25;;;;;;;24.10;17.60;;;10.30;99.90;;;;;;5092349;28;20048;-60
2023/03/18 01:34:51;;;;;;;23.98;16.52;;;10.50;99.90;;;;;;5093721;28;20046;-59
2023/03/18 01:37:18;;;;;;;28.98;17.88;;;10.10;99.90;;;;;;5093470;28;20036;-59
2023/03/18 01:39:44;;;;;;;26.42;18.23;;;10.40;99.90;;;;;;5092065;28;20101;-59
2023/03/18 01:42:11;;;;;;;26.08;19.35;;;10.20;99.90;;;;;;5093112;28;20044;-59
2023/03/18 01:44:37;;;;;;;24.90;17.48;;;10.30;99.90;;;;;;5092383;28;20035;-60
2023/03/18 01:47:03;;;;;;;26.30;19.83;;;9.90;99.90;;;;;;5092084;28;20051;-60
2023/03/18 01:49:54;;;;;;;27.42;19.88;;;10.10;99.90;;;;;;5093258;28;20040;-59
2023/03/18 01:52:27;;;;;;;27.33;19.85;;;9.70;99.90;;;;;;5093256;28;20510;-59
2023/03/18 01:55:05;;;;;;;26.05;19.38;;;9.90;99.90;;;;;;5092978;28;20040;-59
2023/03/18 01:57:32;;;;;;;31.63;21.50;;;9.80;99.90;;;;;;5092944;28;20118;-59
2023/03/18 01:59:59;;;;;;;26.98;20.52;;;9.90;99.90;;;;;;5093180;28;20048;-59
2023/03/18 02:02:25;;;;;;;32.50;21.10;;;9.80;99.90;;;;;;5092890;28;20181;-59
2023/03/18 02:04:53;;;;;;;31.25;22.10;;;9.40;99.90;;;;;;5092940;28;20119;-59
2023/03/18 02:07:24;;;;;;;30.02;21.83;;;9.80;99.90;;;;;;5092736;28;20036;-59
2023/03/18 02:09:51;;;;;;;31.10;22.88;;;9.30;99.90;;;;;;5092984;28;20169;-59
2023/03/18 02:12:30;;;;;;;30.80;23.50;;;9.30;99.90;;;;;;5092580;28;20058;-59
2023/03/18 02:14:57;;;;;;;29.92;23.23;;;9.50;99.90;;;;;;5090934;28;20044;-59
2023/03/18 02:17:28;;;;;;;32.00;24.63;;;9.70;99.90;;;;;;5092389;28;20138;-60
2023/03/18 02:20:14;;;;;;;33.00;24.80;;;9.70;99.90;;;;;;5092714;28;20399;-59
2023/03/18 02:22:49;;;;;;;36.03;25.27;;;9.30;99.90;;;;;;5092635;28;20402;-59
2023/03/18 02:25:32;;;;;;;32.20;24.98;;;9.30;99.90;;;;;;5092649;28;20051;-60
2023/03/18 02:28:05;;;;;;;35.53;25.83;;;9.60;99.90;;;;;;5091241;28;20404;-59
2023/03/18 02:30:45;;;;;;;34.30;25.90;;;9.40;99.90;;;;;;5092758;28;20043;-59
2023/03/18 02:33:12;;;;;;;33.22;26.60;;;9.50;99.90;;;;;;5092415;28;20618;-59
2023/03/18 02:35:41;;;;;;;34.40;26.30;;;9.40;99.90;;;;;;5092410;28;20044;-60
2023/03/18 02:38:07;;;;;;;36.70;26.98;;;9.50;99.90;;;;;;5092232;28;20044;-60
2023/03/18 02:40:36;;;;;;;35.83;27.10;;;9.40;99.90;;;;;;5090936;28;20510;-60
2023/03/18 02:43:20;;;;;;;35.72;27.33;;;9.00;99.90;;;;;;5090776;28;20050;-59
2023/03/18 02:46:24;;;;;;;37.65;27.23;;;9.00;99.90;;;;;;5092172;28;20428;-59
2023/03/18 02:48:51;;;;;;;39.28;28.60;;;8.90;99.90;;;;;;5092027;28;20032;-60
2023/03/18 02:51:19;;;;;;;37.13;27.90;;;9.30;99.90;;;;;;5092320;28;20140;-60
2023/03/18 02:53:46;;;;;;;40.78;28.00;;;9.40;99.90;;;;;;5092124;28;20527;-60
2023/03/18 02:56:12;;;;;;;34.78;29.05;;;9.30;99.90;;;;;;5092063;28;20044;-59
2023/03/18 02:58:39;;;;;;;34.92;27.75;;;9.00;99.90;;;;;;5092212;28;20036;-59
2023/03/18 03:01:06;;;;;;;37.65;28.27;;;8.90;99.90;;;;;;5092092;28;20100;-59
2023/03/18 03:03:33;;;;;;;35.58;27.80;;;8.90;99.90;;;;;;5090502;28;20052;-60
2023/03/18 03:05:59;;;;;;;37.63;28.98;;;9.20;99.90;;;;;;5091071;28;20044;-60
2023/03/18 03:08:26;;;;;;;36.13;27.27;;;8.90;99.90;;;;;;5091968;28;20047;-59
2023/03/18 03:10:52;;;;;;;35.38;28.02;;;9.20;99.90;;;;;;5092102;28;20046;-60
2023/03/18 03:13:21;;;;;;;38.38;30.15;;;9.10;99.90;;;;;;5091818;28;20075;-58
2023/03/18 03:15:47;;;;;;;37.90;28.52;;;9.00;99.90;;;;;;5091871;28;20047;-60
2023/03/18 03:18:13;;;;;;;37.72;28.98;;;8.90;99.90;;;;;;5090328;28;20531;-60
2023/03/18 03:20:39;;;;;;;41.03;31.80;;;8.70;99.90;;;;;;5092153;28;20055;-60
2023/03/18 03:23:11;;;;;;;37.88;29.33;;;8.60;99.90;;;;;;5091728;28;20044;-60
2023/03/18 03:25:37;;;;;;;;;;;8.70;99.90;;;;;;5092350;28;20460;-60
2023/03/18 03:28:04;;;;;;;37.65;27.77;;;8.70;99.90;;;;;;5095238;28;19935;-48
2023/03/18 03:30:30;;;;;;;40.50;29.95;;;8.70;99.90;;;;;;5095895;28;20067;-49
2023/03/18 03:32:56;;;;;;;42.08;30.88;;;8.60;99.90;;;;;;5096046;28;20501;-47
2023/03/18 03:35:22;;;;;;;39.05;31.42;;;8.70;99.90;;;;;;5096015;28;20040;-49
2023/03/18 03:37:48;;;;;;;44.85;31.98;;;8.60;99.90;;;;;;5095877;28;20423;-50
2023/03/18 03:40:16;;;;;;;44.47;32.53;;;8.90;99.90;;;;;;5095845;28;20089;-48
2023/03/18 03:42:42;;;;;;;43.13;32.65;;;8.90;99.90;;;;;;5095500;28;20036;-50
2023/03/18 03:45:09;;;;;;;41.63;31.98;;;8.60;99.90;;;;;;5095585;28;20055;-49
2023/03/18 03:47:35;;;;;;;44.70;34.38;;;9.00;99.90;;;;;;5095517;28;20113;-49
2023/03/18 03:50:01;;;;;;;42.78;34.13;;;8.80;99.90;;;;;;5095407;28;20036;-49
2023/03/18 03:52:27;;;;;;;45.38;34.75;;;8.60;99.90;;;;;;5095336;28;20094;-51
2023/03/18 03:54:54;;;;;;;43.75;33.85;;;8.90;99.90;;;;;;5094375;28;20131;-47
2023/03/18 03:57:22;;;;;;;47.95;35.10;;;8.90;99.90;;;;;;5095317;28;20048;-48
2023/03/18 03:59:49;;;;;;;48.28;35.65;;;8.90;99.90;;;;;;5095286;28;20485;-47
2023/03/18 04:02:15;;;;;;;45.08;34.92;;;8.60;99.90;;;;;;5095174;28;20048;-49
2023/03/18 04:04:42;;;;;;;47.50;36.22;;;8.90;99.90;;;;;;5095479;28;20072;-48
2023/03/18 04:07:08;;;;;;;49.08;35.38;;;9.00;99.90;;;;;;5095303;28;20040;-49
2023/03/18 04:09:35;;;;;;;51.63;36.53;;;8.90;99.90;;;;;;5095050;28;20032;-47
2023/03/18 04:12:01;;;;;;;51.65;37.58;;;8.70;99.90;;;;;;5094960;28;20051;-47
2023/03/18 04:14:27;;;;;;;46.38;35.90;;;8.90;99.90;;;;;;5095267;28;20418;-49
2023/03/18 04:16:54;;;;;;;48.55;36.95;;;8.90;99.90;;;;;;5095255;28;20044;-48
2023/03/18 04:19:20;;;;;;;49.35;37.08;;;8.70;99.90;;;;;;5094905;28;20055;-46
2023/03/18 04:21:46;;;;;;;50.00;38.00;;;8.50;99.90;;;;;;5094838;28;20048;-47
2023/03/18 04:24:11;;;;;;;51.40;37.53;;;8.70;99.90;;;;;;5094676;28;20047;-48
2023/03/18 04:26:37;;;;;;;49.13;36.83;;;8.50;99.90;;;;;;5094794;28;20051;-50
2023/03/18 04:29:03;;;;;;;45.60;35.72;;;8.50;99.90;;;;;;5094974;28;20584;-49
2023/03/18 04:31:30;;;;;;;50.67;36.20;;;8.90;99.90;;;;;;5095011;28;20040;-52
2023/03/18 04:33:56;;;;;;;47.80;35.47;;;8.60;99.90;;;;;;5076706;28;20044;-49
2023/03/18 04:36:22;;;;;;;49.65;36.40;;;8.60;99.90;;;;;;5094742;28;20361;-48
2023/03/18 04:38:48;;;;;;;49.65;37.10;;;8.50;99.90;;;;;;5092201;28;20044;-50
2023/03/18 04:41:14;;;;;;;45.53;36.53;;;8.80;99.90;;;;;;5093167;28;20115;-52
2023/03/18 04:43:39;;;;;;;52.50;36.13;;;8.50;99.90;;;;;;5094300;28;20044;-48
2023/03/18 04:46:05;;;;;;;44.40;34.55;;;8.50;99.90;;;;;;5094906;28;20042;-49
2023/03/18 04:48:31;;;;;;;48.88;33.85;;;8.90;99.90;;;;;;5094377;28;20491;-48
2023/03/18 04:50:56;;;;;;;49.47;36.38;;;9.00;99.90;;;;;;5094231;28;20038;-49
2023/03/18 04:53:22;;;;;;;46.80;34.78;;;8.50;99.90;;;;;;5094238;28;20044;-47
2023/03/18 04:55:49;;;;;;;46.72;33.88;;;8.50;99.90;;;;;;5094162;28;20097;-49
2023/03/18 04:58:15;;;;;;;48.45;35.58;;;8.50;99.90;;;;;;5093900;28;20044;-49
2023/03/18 05:00:41;;;;;;;45.33;33.47;;;8.40;99.90;;;;;;5093745;28;20044;-47
2023/03/18 05:03:08;;;;;;;44.30;32.72;;;8.50;99.90;;;;;;5094216;28;20048;-48
2023/03/18 05:05:34;;;;;;;50.03;35.08;;;8.60;99.90;;;;;;5094130;28;20501;-48
2023/03/18 05:07:59;;;;;;;48.55;34.15;;;8.60;99.90;;;;;;5094171;28;20036;-51
2023/03/18 05:10:25;;;;;;;47.42;35.08;;;8.50;99.90;;;;;;5092678;28;20384;-47
2023/03/18 05:12:51;;;;;;;46.05;33.13;;;8.90;99.90;;;;;;5094082;28;20043;-51
2023/03/18 05:15:17;;;;;;;46.38;34.25;;;8.60;99.90;;;;;;5093886;28;20042;-49
2023/03/18 05:17:42;;;;;;;48.72;33.75;;;8.90;99.90;;;;;;5093863;28;20063;-50
2023/03/18 05:20:09;;;;;;;45.33;32.42;;;8.80;99.90;;;;;;5093621;28;20055;-48
2023/03/18 05:22:35;;;;;;;52.40;32.80;;;8.50;99.90;;;;;;5093713;28;20488;-50
2023/03/18 05:25:01;;;;;;;44.35;33.65;;;8.70;99.90;;;;;;5093524;28;20052;-50
2023/03/18 05:27:28;;;;;;;40.90;31.60;;;8.50;99.90;;;;;;5093718;28;20046;-50
2023/03/18 05:29:54;;;;;;;46.22;32.22;;;9.00;99.90;;;;;;5093426;28;20054;-49
2023/03/18 05:32:20;;;;;;;44.75;32.17;;;8.60;99.90;;;;;;5092207;28;20040;-49
2023/03/18 05:34:46;;;;;;;46.03;32.55;;;8.60;99.90;;;;;;5093599;28;20050;-53
2023/03/18 05:37:14;;;;;;;45.75;30.40;;;9.10;99.90;;;;;;5093442;28;20079;-51
2023/03/18 05:39:40;;;;;;;40.67;27.42;;;8.60;99.90;;;;;;5093272;28;20480;-47
2023/03/18 05:42:07;;;;;;;37.13;25.92;;;8.80;99.90;;;;;;5093261;28;20039;-47
2023/03/18 05:44:33;;;;;;;39.92;25.60;;;8.60;99.90;;;;;;5093185;28;20116;-50
2023/03/18 05:46:59;;;;;;;39.10;27.13;;;8.70;99.90;;;;;;5093138;28;20080;-48
2023/03/18 05:49:26;;;;;;;40.83;26.30;;;8.60;99.90;;;;;;5092793;28;20063;-47
2023/03/18 05:51:52;;;;;;;42.67;25.38;;;8.50;99.90;;;;;;5092140;28;20048;-50
2023/03/18 05:54:18;;;;;;;43.50;27.02;;;9.00;99.90;;;;;;5079459;28;20476;-50
2023/03/18 05:56:44;;;;;;;48.42;26.08;;;9.20;99.90;;;;;;5081504;28;20036;-48
2023/03/18 05:59:11;;;;;;;45.60;24.85;;;8.90;99.90;;;;;;5079022;28;20062;-54
2023/03/18 06:01:37;;;;;;;47.95;24.73;;;9.10;99.90;;;;;;5078217;28;20511;-48
2023/03/18 06:04:05;;;;;;;46.38;24.30;;;9.20;99.90;;;;;;5091636;28;20040;-51
2023/03/18 06:06:31;;;;;;;48.38;24.45;;;8.90;99.90;;;;;;5090508;28;20388;-53
2023/03/18 06:08:57;;;;;;;45.58;23.52;;;9.00;99.90;;;;;;5091178;28;20032;-52
2023/03/18 06:11:23;;;;;;;43.47;22.63;;;9.10;99.90;;;;;;5091576;28;20051;-51
2023/03/18 06:13:49;;;;;;;50.78;24.27;;;8.80;99.90;;;;;;5091499;28;20044;-49
2023/03/18 06:16:15;;;;;;;55.47;26.88;;;9.40;99.90;;;;;;5091182;28;20044;-48
2023/03/18 06:18:41;;;;;;;58.72;25.42;;;8.80;99.90;;;;;;5091099;28;20187;-47
2023/03/18 06:21:10;;;;;;;55.13;26.20;;;9.40;99.90;;;;;;5090997;28;20044;-50
2023/03/18 06:23:37;;;;;;;59.05;26.40;;;9.60;99.90;;;;;;5091140;28;20046;-48
2023/03/18 06:26:03;;;;;;;50.85;25.95;;;9.30;99.90;;;;;;5090828;28;20036;-49
2023/03/18 06:28:29;;;;;;;55.47;25.90;;;9.50;99.90;;;;;;5091201;28;20047;-51
2023/03/18 06:30:58;;;;;;;55.53;27.10;;;8.80;99.90;;;;;;5091033;28;20434;-51
2023/03/18 06:33:24;;;;;;;53.05;27.70;;;8.80;99.90;;;;;;5089885;28;20056;-48
2023/03/18 06:35:52;;;;;;;54.95;25.35;;;9.50;99.90;;;;;;5090835;28;20040;-50
2023/03/18 06:38:18;;;;;;;59.38;25.45;;;8.90;99.90;;;;;;5091142;28;20302;-51
2023/03/18 06:40:44;;;;;;;53.85;26.30;;;9.00;99.90;;;;;;5090783;28;20040;-49
2023/03/18 06:43:10;;;;;;;49.38;26.27;;;9.60;99.90;;;;;;5090687;28;20428;-49
2023/03/18 06:45:37;;;;;;;56.08;25.88;;;8.90;99.90;;;;;;5090841;28;20036;-50
2023/03/18 06:48:03;;;;;;;56.55;26.45;;;9.10;99.90;;;;;;5091003;28;20451;-53
2023/03/18 06:50:30;;;;;;;51.15;26.48;;;9.00;99.90;;;;;;5090566;28;20036;-49
2023/03/18 06:52:57;;;;;;;56.50;27.80;;;8.90;99.90;;;;;;5090931;28;20040;-48
2023/03/18 06:55:24;;;;;;;47.47;25.48;;;9.00;99.90;;;;;;5089387;28;20384;-49
2023/03/18 06:57:49;;;;;;;54.00;25.75;;;9.50;99.90;;;;;;5090727;28;20476;-48
2023/03/18 07:00:16;;;;;;;55.22;26.90;;;9.40;99.90;;;;;;5090615;28;20092;-48
2023/03/18 07:02:42;;;;;;;51.03;26.45;;;9.60;99.90;;;;;;5090144;28;20387;-49
2023/03/18 07:05:08;;;;;;;51.90;25.83;;;9.50;99.90;;;;;;5090284;28;20044;-48
2023/03/18 07:07:36;;;;;;;53.10;27.23;;;9.10;99.90;;;;;;5090750;28;20420;-49
2023/03/18 07:10:05;;;;;;;52.63;28.25;;;9.30;99.90;;;;;;5089351;28;20448;-50
2023/03/18 07:12:31;;;;;;;54.45;27.70;;;9.10;99.90;;;;;;5090491;28;20436;-49
2023/03/18 07:14:56;;;;;;;53.17;28.17;;;9.30;99.90;;;;;;5090417;28;20127;-53
2023/03/18 07:17:23;;;;;;;50.83;26.90;;;10.00;99.90;;;;;;5088847;28;20052;-52
2023/03/18 07:19:48;;;;;;;50.67;28.75;;;9.60;99.90;;;;;;5090177;28;20185;-49
2023/03/18 07:22:17;;;;;;;47.90;28.02;;;9.20;99.90;;;;;;5090245;28;20479;-50
2023/03/18 07:24:44;;;;;;;49.60;28.48;;;9.30;99.90;;;;;;5090459;28;20100;-49
2023/03/18 07:27:12;;;;;;;52.10;27.45;;;9.70;99.90;;;;;;5090283;28;20117;-49
2023/03/18 07:29:38;;;;;;;47.80;27.67;;;10.00;99.90;;;;;;5090006;28;20043;-50
2023/03/18 07:32:04;;;;;;;49.58;27.98;;;9.30;99.90;;;;;;5090029;28;20457;-48
2023/03/18 07:34:30;;;;;;;43.05;26.98;;;9.30;99.90;;;;;;5090266;28;20588;-50
2023/03/18 07:36:56;;;;;;;49.78;28.92;;;9.80;99.90;;;;;;5090243;28;20520;-50
2023/03/18 07:39:22;;;;;;;49.35;28.08;;;10.00;99.90;;;;;;5090282;28;20093;-50
2023/03/18 07:41:48;;;;;;;43.80;28.23;;;10.10;99.90;;;;;;5088589;28;20404;-52
2023/03/18 07:44:14;;;;;;;48.33;27.67;;;9.50;99.90;;;;;;5088918;28;20050;-51
2023/03/18 07:46:40;;;;;;;49.35;29.00;;;10.30;99.90;;;;;;5089994;28;20468;-50
2023/03/18 07:49:06;;;;;;;48.00;29.10;;;9.60;99.90;;;;;;5088466;28;20119;-49
2023/03/18 07:51:31;;;;;;;41.95;28.10;;;9.80;99.90;;;;;;5090002;28;20042;-51
2023/03/18 07:53:57;;;;;;;45.85;27.40;;;9.80;99.90;;;;;;5090092;28;20484;-50
2023/03/18 07:56:24;;;;;;;42.30;27.30;;;10.40;99.90;;;;;;5089714;28;20540;-53
2023/03/18 07:58:50;;;;;;;45.50;29.45;;;9.80;99.90;;;;;;5090211;28;20388;-48
2023/03/18 08:01:18;;;;;;;45.65;29.58;;;10.00;99.90;;;;;;5079779;28;20036;-48
2023/03/18 08:03:45;;;;;;;47.88;29.92;;;10.30;99.90;;;;;;5070459;28;20166;-55
2023/03/18 08:06:12;;;;;;;46.08;28.65;;;10.70;99.90;;;;;;5068136;28;20040;-50
2023/03/18 08:08:39;;;;;;;48.35;29.08;;;10.70;99.90;;;;;;5070669;28;20044;-51
2023/03/18 08:11:05;;;;;;;47.47;29.35;;;10.20;99.90;;;;;;5070886;28;20029;-48
2023/03/18 08:13:30;;;;;;;46.53;30.17;;;10.10;99.90;;;;;;5071543;28;20412;-48
2023/03/18 08:15:57;;;;;;;43.00;28.50;;;10.20;99.90;;;;;;5074426;28;20110;-51
2023/03/18 08:18:23;;;;;;;43.55;30.45;;;10.90;99.90;;;;;;5074493;28;20063;-50
2023/03/18 08:20:49;;;;;;;44.83;30.02;;;10.40;99.90;;;;;;5074965;28;20044;-48
2023/03/18 08:23:14;;;;;;;40.70;28.92;;;10.80;99.90;;;;;;5074081;28;20051;-47
2023/03/18 08:25:41;;;;;;;42.42;29.33;;;10.50;99.90;;;;;;5073749;28;20032;-48
2023/03/18 08:28:07;;;;;;;45.05;29.27;;;11.10;99.90;;;;;;5074382;28;20480;-52
2023/03/18 08:30:34;;;;;;;42.60;29.67;;;11.00;99.90;;;;;;5072939;28;20125;-52
2023/03/18 08:33:00;;;;;;;43.30;27.95;;;11.10;99.90;;;;;;5073911;28;20615;-51
2023/03/18 08:35:26;;;;;;;39.50;27.70;;;10.50;99.90;;;;;;5073767;28;20132;-50
2023/03/18 08:37:54;;;;;;;44.15;28.42;;;10.50;99.90;;;;;;5072597;28;20127;-48
2023/03/18 08:40:20;;;;;;;39.13;27.50;;;10.60;99.90;;;;;;5073806;28;20049;-48
2023/03/18 08:42:45;;;;;;;38.38;27.95;;;10.80;99.90;;;;;;5073723;28;20054;-49
2023/03/18 08:45:12;;;;;;;40.95;27.05;;;11.20;99.90;;;;;;5073541;28;20037;-52
2023/03/18 08:47:38;;;;;;;42.60;31.45;;;10.70;99.90;;;;;;5074035;28;20032;-53
2023/03/18 08:50:04;;;;;;;43.97;31.13;;;10.90;99.90;;;;;;5086990;28;20500;-50
2023/03/18 08:52:31;;;;;;;41.50;31.27;;;11.10;99.90;;;;;;5093938;28;20094;-50
2023/03/18 08:54:57;;;;;;;43.55;31.42;;;11.30;99.90;;;;;;5092564;28;20073;-49
2023/03/18 08:57:23;;;;;;;42.70;30.42;;;11.40;99.90;;;;;;5093587;28;20047;-48
2023/03/18 08:59:50;;;;;;;45.60;31.42;;;11.30;99.90;;;;;;5092656;28;20422;-49
2023/03/18 09:02:17;;;;;;;42.00;31.60;;;10.80;99.90;;;;;;5090751;28;20098;-49
2023/03/18 09:04:43;;;;;;;42.25;32.13;;;10.80;99.90;;;;;;5079684;28;20119;-48
2023/03/18 09:07:10;;;;;;;41.90;30.60;;;10.70;99.90;;;;;;5081648;28;20047;-49
2023/03/18 09:09:35;;;;;;;42.78;30.75;;;11.40;99.90;;;;;;5081396;28;20040;-50
2023/03/18 09:12:03;;;;;;;40.80;29.02;;;10.80;99.90;;;;;;5080250;28;20512;-53
2023/03/18 09:14:29;;;;;;;40.35;31.17;;;11.50;99.90;;;;;;5080889;28;20083;-49
2023/03/18 09:16:55;;;;;;;41.55;29.75;;;10.90;99.90;;;;;;5081871;28;20047;-48
2023/03/18 09:19:21;;;;;;;43.90;31.27;;;11.50;99.90;;;;;;5075307;28;20068;-49
2023/03/18 09:21:46;;;;;;;42.85;30.83;;;11.50;99.90;;;;;;5086224;28;20513;-49
2023/03/18 09:24:12;;;;;;;41.22;30.73;;;11.50;99.90;;;;;;5091460;28;20149;-49
2023/03/18 09:26:38;;;;;;;43.25;30.67;;;11.00;99.90;;;;;;5091897;28;20106;-49
2023/03/18 09:29:04;;;;;;;39.78;29.20;;;11.50;99.90;;;;;;5091887;28;20040;-49
2023/03/18 09:31:30;;;;;;;38.45;28.90;;;11.50;99.90;;;;;;5092187;28;20069;-49
2023/03/18 09:33:56;;;;;;;41.78;30.58;;;11.60;99.90;;;;;;5091842;28;20511;-49
2023/03/18 09:36:22;;;;;;;37.85;30.00;;;11.00;99.90;;;;;;5091574;28;20067;-53
2023/03/18 09:38:48;;;;;;;41.58;29.85;;;11.00;99.90;;;;;;5091788;28;20040;-52
2023/03/18 09:41:32;;;;;;;42.10;31.23;;;11.70;99.90;;;;;;5090475;28;20442;-49
2023/03/18 09:44:19;;;;;;;41.55;30.55;;;11.70;99.90;;;;;;5091541;28;20088;-52
2023/03/18 09:46:54;;;;;;;48.13;33.10;;;11.20;99.90;;;;;;5091754;28;20101;-49
2023/03/18 09:49:33;;;;;;;39.58;31.63;;;11.60;99.90;;;;;;5091249;28;20447;-49
2023/03/18 09:52:20;;;;;;;42.15;31.42;;;11.80;99.90;;;;;;5091664;28;20104;-52
2023/03/18 09:55:03;;;;;;;40.50;31.77;;;11.90;99.90;;;;;;5091469;28;20475;-49
2023/03/18 09:57:36;;;;;;;44.70;31.48;;;11.50;99.90;;;;;;5091584;28;20052;-52
2023/03/18 10:00:14;;;;;;;38.13;29.83;;;11.70;99.90;;;;;;5091373;28;20040;-48
2023/03/18 10:03:00;;;;;;;41.08;31.88;;;11.90;99.90;;;;;;5090032;28;20120;-51
2023/03/18 10:05:33;;;;;;;38.97;31.30;;;12.10;99.90;;;;;;5091171;28;20040;-48
2023/03/18 10:08:31;;;;;;;37.15;30.20;;;12.40;99.90;;;;;;5091274;28;20040;-53
2023/03/18 10:11:02;;;;;;;39.75;29.17;;;12.80;99.90;;;;;;5091148;28;20078;-50
2023/03/18 10:13:44;;;;;;;36.95;28.13;;;13.00;99.90;;;;;;5091206;28;20071;-50
2023/03/18 10:16:16;;;;;;;33.35;26.00;;;13.20;99.90;;;;;;5091705;28;20127;-50
2023/03/18 10:18:43;;;;;;;33.85;25.67;;;13.00;99.90;;;;;;5091236;28;20055;-49
2023/03/18 10:21:34;;;;;;;38.10;26.65;;;13.30;99.90;;;;;;5091164;28;20047;-49
2023/03/18 10:24:26;;;;;;;37.47;27.23;;;13.30;99.90;;;;;;5090802;28;20047;-50
2023/03/18 10:27:04;;;;;;;33.63;25.00;;;13.20;99.90;;;;;;5091301;28;20390;-50
2023/03/18 10:29:44;;;;;;;31.20;24.17;;;13.10;99.90;;;;;;5091029;28;20093;-49
2023/03/18 10:32:12;;;;;;;32.67;24.42;;;13.60;99.90;;;;;;5092454;28;20099;-49
2023/03/18 10:34:43;;;;;;;30.33;23.83;;;13.60;99.90;;;;;;5092195;28;20051;-51
2023/03/18 10:37:38;;;;;;;30.88;24.27;;;13.60;99.90;;;;;;5091634;28;20079;-48
2023/03/18 10:40:16;;;;;;;29.80;22.23;;;13.30;99.90;;;;;;5091625;28;20055;-50
2023/03/18 10:42:43;;;;;;;29.08;20.83;;;13.70;99.90;;;;;;5092273;28;20052;-50
2023/03/18 10:45:17;;;;;;;26.30;19.92;;;13.20;99.90;;;;;;5091915;28;20036;-51
2023/03/18 10:47:49;;;;;;;28.80;21.60;;;13.30;99.90;;;;;;5092310;28;20510;-51
2023/03/18 10:50:24;;;;;;;31.10;20.77;;;13.40;99.90;;;;;;5091942;28;20476;-51
2023/03/18 10:53:00;;;;;;;29.52;21.20;;;13.60;99.90;;;;;;5071703;28;20392;-50
2023/03/18 10:55:34;;;;;;;26.17;19.73;;;14.00;99.90;;;;;;5070141;28;20135;-50
2023/03/18 10:58:09;;;;;;;28.25;20.75;;;13.80;99.90;;;;;;5071725;28;20032;-49
2023/03/18 11:00:34;;;;;;;30.60;20.52;;;14.30;99.90;;;;;;5069866;28;20032;-47
2023/03/18 11:03:03;;;;;;;23.98;15.88;;;14.20;99.90;;;;;;5071402;28;20075;-51
2023/03/18 11:05:35;;;;;;;23.75;16.08;;;13.90;99.90;;;;;;5070234;28;20116;-53
2023/03/18 11:08:03;;;;;;;25.00;16.50;;;13.80;99.90;;;;;;5071256;28;20381;-45
2023/03/18 11:10:34;;;;;;;26.30;19.08;;;14.10;99.90;;;;;;5071352;28;20499;-47
2023/03/18 11:13:05;;;;;;;27.25;18.38;;;14.20;99.90;;;;;;5071127;28;20127;-47
2023/03/18 11:15:37;;;;;;;24.27;16.98;;;14.00;99.90;;;;;;5071514;28;20449;-47
2023/03/18 11:18:03;;;;;;;;;;;13.90;99.90;;;;;;5071823;28;20049;-46
2023/03/18 11:20:41;;;;;;;20.90;13.52;;;14.00;99.90;;;;;;5070954;28;19916;-46
2023/03/18 11:23:16;;;;;;;21.63;14.10;;;13.80;99.90;;;;;;5070019;28;20113;-47
2023/03/18 11:25:45;;;;;;;22.98;14.73;;;14.00;99.90;;;;;;5070805;28;20048;-47
2023/03/18 11:28:21;;;;;;;23.55;12.90;;;13.70;99.90;;;;;;5071289;28;20032;-47
2023/03/18 11:30:51;;;;;;;19.73;11.48;;;13.70;99.90;;;;;;5070210;28;20048;-46
2023/03/18 11:33:18;;;;;;;17.50;11.70;;;13.80;99.90;;;;;;5071479;28;20056;-47
2023/03/18 11:35:48;;;;;;;18.00;11.20;;;14.00;99.90;;;;;;5070061;28;20048;-46
2023/03/18 11:38:36;;;;;;;15.30;9.07;;;14.00;99.90;;;;;;5071275;28;20116;-51
2023/03/18 11:41:12;;;;;;;18.85;10.02;;;14.00;99.90;;;;;;5071526;28;20040;-45
2023/03/18 11:43:38;;;;;;;19.35;10.57;;;14.30;99.90;;;;;;5079094;28;20123;-46
2023/03/18 11:46:04;;;;;;;16.50;10.57;;;14.40;99.90;;;;;;5078366;28;20055;-45
2023/03/18 11:48:35;;;;;;;16.13;11.00;;;14.40;99.90;;;;;;5082940;28;20044;-46
2023/03/18 11:51:22;;;;;;;18.60;11.38;;;14.30;99.90;;;;;;5086555;28;20068;-46
2023/03/18 11:54:06;;;;;;;17.80;10.98;;;14.60;99.90;;;;;;5081826;28;20062;-45
2023/03/18 11:57:07;;;;;;;15.88;10.30;;;14.30;99.90;;;;;;5085199;28;20048;-47
2023/03/18 12:00:06;;;;;;;16.70;10.45;;;14.30;99.90;;;;;;5086388;28;20040;-47
2023/03/18 12:03:02;;;;;;;20.23;12.10;;;14.20;99.90;;;;;;5084891;28;20127;-47
2023/03/18 12:05:37;;;;;;;20.25;12.60;;;14.30;99.90;;;;;;5093549;28;20047;-46
2023/03/18 12:08:30;;;;;;;21.05;12.45;;;14.10;99.90;;;;;;5095398;28;20263;-48
2023/03/18 12:11:08;;;;;;;17.77;12.13;;;14.40;99.90;;;;;;5062776;28;20048;-46
2023/03/18 12:13:46;;;;;;;20.05;13.52;;;14.60;99.90;;;;;;5095028;28;20067;-46
2023/03/18 12:16:38;;;;;;;17.90;13.38;;;15.00;99.90;;;;;;5094996;28;20222;-47
2023/03/18 12:19:16;;;;;;;16.25;12.43;;;15.00;99.90;;;;;;5094681;28;20052;-49
2023/03/18 12:21:56;;;;;;;19.38;12.93;;;14.90;99.90;;;;;;5094459;28;20062;-46
2023/03/18 12:24:59;;;;;;;19.92;12.65;;;14.70;99.90;;;;;;5094871;28;20032;-45
2023/03/18 12:27:47;;;;;;;18.15;11.75;;;14.50;99.90;;;;;;5093410;28;20143;-45
2023/03/18 12:30:44;;;;;;;18.45;12.13;;;14.40;99.90;;;;;;5094645;28;20560;-45
2023/03/18 12:33:10;;;;;;;18.15;12.88;;;14.80;99.90;;;;;;5094893;28;20036;-47
2023/03/18 12:35:52;;;;;;;21.20;13.02;;;15.00;99.90;;;;;;5094811;28;20514;-46
2023/03/18 12:38:18;;;;;;;18.88;12.20;;;15.00;99.90;;;;;;5094592;28;20047;-46
2023/03/18 12:41:05;;;;;;;19.02;12.38;;;14.70;99.90;;;;;;5094305;28;20047;-45
2023/03/18 12:43:39;;;;;;;18.25;13.02;;;14.70;99.90;;;;;;5094057;28;20048;-47
2023/03/18 12:46:30;;;;;;;16.55;11.90;;;15.00;99.90;;;;;;5094164;28;20044;-46